KISM/ISM METAR and TAF weather

Enter ICAO airport designator
Station Type Date Time Source
KISM METAR 2021/03/05 05:56 UTC NOAA

KISM 050556Z AUTO 00000KT CLR 13/12 A3002 RMK AO2 SLP165 T01330122 10206 20128 58002 PWINO $


Station Type Date Time Source
KISM Decoded METAR 2021/03/05 05:56 UTC NOAA

Orlando, Kissimmee Municipal Airport, FL, United States (KISM) 28-17-23N 081-26-14W
Mar 05, 2021 - 12:56 AM EST / 2021.03.05 0556 UTC
Wind: Calm:0
Sky conditions: clear
Temperature: 55.9 F (13.3 C)
Dew Point: 54.0 F (12.2 C)
Relative Humidity: 93%
Pressure (altimeter): 30.02 in. Hg (1016 hPa)
Pressure tendency: 0.01 inches (0.2 hPa) lower than three hours ago
ob: KISM 050556Z AUTO 00000KT CLR 13/12 A3002 RMK AO2 SLP165 T01330122 10206 20128 58002 PWINO
cycle: 6

Station Type Date Time Source
KISM TAF 2021/03/05 06:42 UTC NOAA

TAF KISM 050539Z 0506/0606 00000KT P6SM SKC
FM051600 05007KT P6SM FEW250
FM052100 08006KT P6SM SCT250
FM060300 03005KT P6SM SCT040 BKN150
AMD LTD TO CLD AND WIND 0506/0512

Example: see airport list